createdAt,value
2017-11-13T00:00:34.212Z,995.2
2017-11-13T00:01:35.692Z,995.2
2017-11-13T00:02:37.193Z,995.2
2017-11-13T00:03:38.761Z,995.2
2017-11-13T00:04:40.330Z,995.2
2017-11-13T00:05:41.808Z,995.3
2017-11-13T00:06:43.427Z,995.3
2017-11-13T00:07:44.891Z,995.3
2017-11-13T00:08:46.438Z,995.3
2017-11-13T00:09:48.100Z,995.3
2017-11-13T00:10:52.205Z,995.3
2017-11-13T00:11:53.809Z,995.4
2017-11-13T00:12:55.497Z,995.3
2017-11-13T00:13:57.136Z,995.4
2017-11-13T00:14:58.658Z,995.4
2017-11-13T00:16:00.251Z,995.4
2017-11-13T00:17:01.760Z,995.4
2017-11-13T00:18:06.764Z,995.4
2017-11-13T00:19:08.393Z,995.4
2017-11-13T00:20:10.043Z,995.4
2017-11-13T00:21:11.760Z,995.4
2017-11-13T00:22:13.293Z,995.4
2017-11-13T00:23:14.879Z,995.4
2017-11-13T00:24:16.416Z,995.4
2017-11-13T00:25:17.954Z,995.4
2017-11-13T00:26:19.472Z,995.5
2017-11-13T00:27:22.075Z,995.5
2017-11-13T00:28:23.660Z,995.5
2017-11-13T00:29:25.244Z,995.5
2017-11-13T00:30:26.773Z,995.5
2017-11-13T00:31:28.442Z,995.5
2017-11-13T00:32:30.020Z,995.6
2017-11-13T00:33:31.626Z,995.6
2017-11-13T00:34:33.203Z,995.6
2017-11-13T00:35:34.808Z,995.6
2017-11-13T00:36:36.491Z,995.6
2017-11-13T00:37:38.129Z,995.6
2017-11-13T00:38:39.750Z,995.6
2017-11-13T00:39:41.290Z,995.6
2017-11-13T00:40:43.008Z,995.6
2017-11-13T00:41:45.647Z,995.6
2017-11-13T00:42:47.196Z,995.6
2017-11-13T00:43:48.795Z,995.6
2017-11-13T00:44:50.420Z,995.6
2017-11-13T00:45:52.023Z,995.6
2017-11-13T00:46:53.606Z,995.6
2017-11-13T00:47:55.168Z,995.7
2017-11-13T00:48:56.717Z,995.7
2017-11-13T00:49:59.248Z,995.7
2017-11-13T00:51:00.815Z,995.6
2017-11-13T00:52:02.327Z,995.7
2017-11-13T00:53:03.792Z,995.7
2017-11-13T00:54:05.319Z,995.7
2017-11-13T00:55:06.800Z,995.8
2017-11-13T00:56:08.402Z,995.7
2017-11-13T00:57:09.869Z,995.8
2017-11-13T00:58:11.542Z,995.8
2017-11-13T00:59:13.109Z,995.8
2017-11-13T01:00:14.700Z,995.8
2017-11-13T01:01:16.210Z,995.8
2017-11-13T01:02:17.835Z,995.9
2017-11-13T01:03:19.481Z,995.9
2017-11-13T01:04:21.105Z,995.9
2017-11-13T01:05:22.715Z,995.9
2017-11-13T01:06:24.460Z,995.9
2017-11-13T01:07:26.024Z,995.9
2017-11-13T01:08:27.571Z,996.0
2017-11-13T01:09:29.088Z,996.0
2017-11-13T01:10:30.755Z,996.0
2017-11-13T01:11:32.311Z,996.0
2017-11-13T01:12:33.957Z,996.1
2017-11-13T01:13:35.521Z,996.0
2017-11-13T01:14:37.110Z,996.1
2017-11-13T01:15:38.667Z,996.0
2017-11-13T01:16:40.435Z,996.0
2017-11-13T01:17:42.029Z,996.1
2017-11-13T01:18:43.595Z,996.1
2017-11-13T01:19:45.101Z,996.1
2017-11-13T01:20:46.737Z,996.0
2017-11-13T01:21:48.247Z,996.1
2017-11-13T01:22:49.853Z,996.1
2017-11-13T01:23:51.426Z,996.2
2017-11-13T01:24:53.107Z,996.2
2017-11-13T01:25:54.637Z,996.2
2017-11-13T01:26:57.257Z,996.2
2017-11-13T01:27:58.749Z,996.2
2017-11-13T01:29:00.392Z,996.2
2017-11-13T01:30:01.911Z,996.3
2017-11-13T01:31:03.544Z,996.3
2017-11-13T01:32:05.095Z,996.3
2017-11-13T01:33:07.629Z,996.3
2017-11-13T01:34:09.162Z,996.3
2017-11-13T01:35:10.748Z,996.4
2017-11-13T01:36:12.392Z,996.4
2017-11-13T01:37:14.065Z,996.3
2017-11-13T01:38:15.558Z,996.4
2017-11-13T01:39:17.097Z,996.4
2017-11-13T01:40:18.620Z,996.4
2017-11-13T01:41:20.179Z,996.4
2017-11-13T01:42:21.787Z,996.4
2017-11-13T01:43:23.359Z,996.4
2017-11-13T01:44:24.893Z,996.4
2017-11-13T01:45:26.444Z,996.4
2017-11-13T01:46:27.907Z,996.4
2017-11-13T01:47:29.516Z,996.4
2017-11-13T01:48:31.021Z,996.4
2017-11-13T01:49:32.590Z,996.4
2017-11-13T01:50:34.063Z,996.4
2017-11-13T01:51:35.834Z,996.4
2017-11-13T01:52:37.320Z,996.4
2017-11-13T01:53:39.870Z,996.4
2017-11-13T01:54:41.412Z,996.4
2017-11-13T01:55:43.007Z,996.4
2017-11-13T01:56:44.654Z,996.4
2017-11-13T01:57:46.240Z,996.3
2017-11-13T01:58:47.749Z,996.3
2017-11-13T01:59:49.301Z,996.3
2017-11-13T02:00:50.872Z,996.3
2017-11-13T02:01:52.467Z,996.3
2017-11-13T02:02:54.015Z,996.3
2017-11-13T02:03:55.555Z,996.3
2017-11-13T02:04:57.086Z,996.3
2017-11-13T02:05:59.671Z,996.3
2017-11-13T02:07:01.164Z,996.3
2017-11-13T02:08:02.877Z,996.3
2017-11-13T02:09:04.406Z,996.3
2017-11-13T02:10:06.031Z,996.3
2017-11-13T02:11:07.496Z,996.3
2017-11-13T02:12:09.130Z,996.4
2017-11-13T02:13:10.618Z,996.3
2017-11-13T02:14:12.195Z,996.4
2017-11-13T02:15:13.711Z,996.4
2017-11-13T02:16:15.277Z,996.4
2017-11-13T02:17:16.782Z,996.5
2017-11-13T02:18:18.310Z,996.5
2017-11-13T02:19:19.894Z,996.5
2017-11-13T02:20:22.441Z,996.6
2017-11-13T02:21:24.044Z,996.5
2017-11-13T02:22:25.753Z,996.6
2017-11-13T02:23:27.347Z,996.6
2017-11-13T02:24:29.015Z,996.6
2017-11-13T02:25:30.595Z,996.6
2017-11-13T02:26:33.212Z,996.7
2017-11-13T02:27:34.748Z,996.7
2017-11-13T02:28:36.456Z,996.7
2017-11-13T02:29:38.052Z,996.7
2017-11-13T02:30:39.728Z,996.7
2017-11-13T02:31:41.319Z,996.7
2017-11-13T02:32:43.072Z,996.7
2017-11-13T02:33:44.659Z,996.7
2017-11-13T02:34:46.289Z,996.7
2017-11-13T02:35:47.902Z,996.7
2017-11-13T02:36:49.569Z,996.8
2017-11-13T02:37:51.140Z,996.8
2017-11-13T02:38:52.777Z,996.8
2017-11-13T02:39:54.279Z,996.9
2017-11-13T02:40:55.870Z,996.9
2017-11-13T02:41:57.398Z,996.9
2017-11-13T02:42:59.031Z,996.9
2017-11-13T02:44:00.542Z,996.9
2017-11-13T02:45:03.279Z,997.0
2017-11-13T02:46:04.816Z,997.0
2017-11-13T02:47:06.355Z,997.0
2017-11-13T02:48:07.869Z,997.1
2017-11-13T02:49:10.451Z,997.0
2017-11-13T02:50:11.954Z,997.1
2017-11-13T02:51:13.594Z,997.1
2017-11-13T02:52:15.105Z,997.1
2017-11-13T02:53:16.655Z,997.2
2017-11-13T02:54:18.152Z,997.2
2017-11-13T02:55:19.765Z,997.1
2017-11-13T02:56:21.306Z,997.1
2017-11-13T02:57:22.953Z,997.2
2017-11-13T02:58:24.550Z,997.3
2017-11-13T02:59:26.193Z,997.3
2017-11-13T03:00:27.669Z,997.3
2017-11-13T03:01:29.382Z,997.2
2017-11-13T03:02:30.890Z,997.3
2017-11-13T03:03:32.481Z,997.3
2017-11-13T03:04:34.100Z,997.3
2017-11-13T03:05:35.659Z,997.3
2017-11-13T03:06:37.183Z,997.3
2017-11-13T03:07:38.754Z,997.3
2017-11-13T03:08:40.252Z,997.4
2017-11-13T03:09:41.881Z,997.4
2017-11-13T03:10:43.389Z,997.4
2017-11-13T03:11:44.946Z,997.4
2017-11-13T03:12:46.516Z,997.4
2017-11-13T03:13:48.175Z,997.4
2017-11-13T03:14:49.890Z,997.4
2017-11-13T03:15:51.520Z,997.4
2017-11-13T03:16:53.171Z,997.4
2017-11-13T03:17:54.789Z,997.4
2017-11-13T03:18:56.491Z,997.4
2017-11-13T03:19:58.233Z,997.5
2017-11-13T03:20:59.821Z,997.5
2017-11-13T03:22:01.491Z,997.5
2017-11-13T03:23:03.070Z,997.5
2017-11-13T03:24:05.823Z,997.5
2017-11-13T03:25:07.389Z,997.5
2017-11-13T03:26:09.082Z,997.5
2017-11-13T03:27:10.715Z,997.5
2017-11-13T03:28:12.371Z,997.5
2017-11-13T03:29:13.926Z,997.6
2017-11-13T03:30:15.658Z,997.6
2017-11-13T03:31:17.372Z,997.6
2017-11-13T03:32:19.166Z,997.6
2017-11-13T03:33:20.780Z,997.6
2017-11-13T03:34:22.526Z,997.6
2017-11-13T03:35:24.201Z,997.6
2017-11-13T03:36:25.839Z,997.6
2017-11-13T03:37:27.451Z,997.7
2017-11-13T03:38:29.057Z,997.7
2017-11-13T03:39:30.584Z,997.7
2017-11-13T03:40:33.164Z,997.6
2017-11-13T03:41:34.731Z,997.7
2017-11-13T03:42:36.315Z,997.6
2017-11-13T03:43:37.860Z,997.7
2017-11-13T03:44:39.424Z,997.7
2017-11-13T03:45:40.901Z,997.7
2017-11-13T03:46:42.525Z,997.7
2017-11-13T03:47:44.191Z,997.7
2017-11-13T03:48:45.846Z,997.8
2017-11-13T03:49:47.433Z,997.8
2017-11-13T03:50:49.022Z,997.8
2017-11-13T03:51:50.661Z,997.8
2017-11-13T03:52:53.468Z,997.8
2017-11-13T03:53:55.012Z,997.8
2017-11-13T03:54:56.675Z,997.8
2017-11-13T03:55:58.275Z,997.9
2017-11-13T03:56:59.953Z,997.9
2017-11-13T03:58:01.600Z,997.8
2017-11-13T03:59:04.295Z,997.9
2017-11-13T04:00:05.927Z,997.9
2017-11-13T04:01:08.552Z,998.0
2017-11-13T04:02:10.106Z,998.0
2017-11-13T04:03:11.748Z,998.1
2017-11-13T04:04:13.322Z,998.1
2017-11-13T04:05:16.001Z,998.1
2017-11-13T04:06:17.573Z,998.1
2017-11-13T04:07:19.250Z,998.1
2017-11-13T04:08:20.806Z,998.1
2017-11-13T04:09:22.506Z,998.2
2017-11-13T04:10:23.995Z,998.2
2017-11-13T04:11:25.578Z,998.2
2017-11-13T04:12:27.154Z,998.2
2017-11-13T04:13:28.766Z,998.2
2017-11-13T04:14:30.382Z,998.2
2017-11-13T04:15:32.000Z,998.2
2017-11-13T04:16:33.613Z,998.2
2017-11-13T04:17:35.320Z,998.3
2017-11-13T04:18:36.922Z,998.3
2017-11-13T04:19:38.592Z,998.4
2017-11-13T04:20:40.152Z,998.4
2017-11-13T04:21:41.811Z,998.4
2017-11-13T04:22:43.418Z,998.4
2017-11-13T04:23:45.082Z,998.4
2017-11-13T04:24:46.666Z,998.4
2017-11-13T04:25:48.391Z,998.4
2017-11-13T04:26:50.024Z,998.3
2017-11-13T04:27:51.670Z,998.4
2017-11-13T04:28:53.302Z,998.3
2017-11-13T04:29:55.894Z,998.3
2017-11-13T04:30:57.531Z,998.3
2017-11-13T04:31:59.097Z,998.3
2017-11-13T04:33:00.699Z,998.3
2017-11-13T04:34:02.275Z,998.3
2017-11-13T04:35:03.863Z,998.3
2017-11-13T04:36:05.538Z,998.3
2017-11-13T04:37:07.153Z,998.4
2017-11-13T04:38:08.819Z,998.4
2017-11-13T04:39:10.391Z,998.5
2017-11-13T04:40:13.039Z,998.5
2017-11-13T04:41:14.642Z,998.5
2017-11-13T04:42:16.318Z,998.5
2017-11-13T04:43:17.943Z,998.5
2017-11-13T04:44:19.582Z,998.5
2017-11-13T04:45:21.100Z,998.5
2017-11-13T04:46:22.811Z,998.5
2017-11-13T04:47:24.387Z,998.5
2017-11-13T04:48:26.138Z,998.5
2017-11-13T04:49:27.797Z,998.5
2017-11-13T04:50:29.461Z,998.6
2017-11-13T04:51:31.021Z,998.6
2017-11-13T04:52:32.733Z,998.6
2017-11-13T04:53:34.215Z,998.6
2017-11-13T04:54:36.780Z,998.6
2017-11-13T04:55:38.310Z,998.6
2017-11-13T04:56:39.871Z,998.6
2017-11-13T04:57:41.413Z,998.6
2017-11-13T04:58:43.014Z,998.6
2017-11-13T04:59:44.690Z,998.6
2017-11-13T05:00:46.353Z,998.6
2017-11-13T05:01:48.084Z,998.6
2017-11-13T05:02:49.646Z,998.6
2017-11-13T05:03:51.188Z,998.7
2017-11-13T05:04:52.728Z,998.7
2017-11-13T05:05:54.252Z,998.7
2017-11-13T05:06:55.871Z,998.7
2017-11-13T05:07:57.387Z,998.8
2017-11-13T05:08:58.984Z,998.8
2017-11-13T05:10:00.582Z,998.8
2017-11-13T05:11:02.261Z,998.8
2017-11-13T05:12:03.855Z,998.8
2017-11-13T05:13:05.643Z,998.8
2017-11-13T05:14:07.149Z,998.9
2017-11-13T05:15:08.834Z,998.9
2017-11-13T05:16:10.374Z,998.9
2017-11-13T05:17:11.952Z,998.9
2017-11-13T05:18:13.534Z,999.0
2017-11-13T05:19:16.072Z,999.0
2017-11-13T05:20:17.593Z,999.0
2017-11-13T05:21:19.199Z,999.0
2017-11-13T05:22:20.726Z,999.0
2017-11-13T05:23:22.412Z,999.0
2017-11-13T05:24:23.873Z,999.1
2017-11-13T05:25:26.483Z,999.1
2017-11-13T05:26:28.071Z,999.1
2017-11-13T05:27:30.881Z,999.1
2017-11-13T05:28:32.388Z,999.1
2017-11-13T05:29:34.052Z,999.1
2017-11-13T05:30:35.588Z,999.1
2017-11-13T05:31:37.142Z,999.1
2017-11-13T05:32:38.689Z,999.1
2017-11-13T05:33:40.327Z,999.1
2017-11-13T05:34:41.916Z,999.1
2017-11-13T05:35:43.530Z,999.2
2017-11-13T05:36:45.132Z,999.1
2017-11-13T05:37:46.805Z,999.1
2017-11-13T05:38:48.501Z,999.2
2017-11-13T05:39:50.151Z,999.1
2017-11-13T05:40:51.724Z,999.2
2017-11-13T05:41:53.380Z,999.1
2017-11-13T05:42:55.014Z,999.2
2017-11-13T05:43:56.631Z,999.1
2017-11-13T05:44:58.199Z,999.2
2017-11-13T05:45:59.808Z,999.2
2017-11-13T05:47:01.314Z,999.2
2017-11-13T05:48:02.981Z,999.2
2017-11-13T05:49:04.553Z,999.2
2017-11-13T05:50:06.155Z,999.2
2017-11-13T05:51:07.746Z,999.2
2017-11-13T05:52:09.396Z,999.3
2017-11-13T05:53:10.989Z,999.3
2017-11-13T05:54:12.586Z,999.3
2017-11-13T05:55:14.108Z,999.3
2017-11-13T05:56:15.728Z,999.3
2017-11-13T05:57:17.308Z,999.4
2017-11-13T05:58:18.965Z,999.4
2017-11-13T05:59:20.532Z,999.4
2017-11-13T06:00:22.169Z,999.5
2017-11-13T06:01:23.716Z,999.5
2017-11-13T06:02:25.279Z,999.5
2017-11-13T06:03:26.767Z,999.5
2017-11-13T06:04:28.452Z,999.5
2017-11-13T06:05:29.935Z,999.6
2017-11-13T06:06:31.515Z,999.6
2017-11-13T06:07:32.996Z,999.7
2017-11-13T06:08:34.593Z,999.7
2017-11-13T06:09:36.096Z,999.7
2017-11-13T06:10:37.676Z,999.7
2017-11-13T06:11:39.373Z,999.7
2017-11-13T06:12:40.985Z,999.7
2017-11-13T06:13:42.483Z,999.8
2017-11-13T06:14:44.083Z,999.8
2017-11-13T06:15:45.801Z,999.8
2017-11-13T06:16:47.311Z,999.8
2017-11-13T06:17:48.928Z,999.8
2017-11-13T06:18:50.442Z,999.8
2017-11-13T06:19:52.079Z,999.9
2017-11-13T06:20:53.588Z,999.8
2017-11-13T06:21:55.238Z,999.9
2017-11-13T06:22:56.727Z,999.9
2017-11-13T06:23:59.291Z,999.9
2017-11-13T06:25:00.855Z,999.9
2017-11-13T06:26:02.566Z,1000.0
2017-11-13T06:27:04.160Z,1000.0
2017-11-13T06:28:06.833Z,1000.0
2017-11-13T06:29:08.344Z,1000.0
2017-11-13T06:30:10.909Z,1000.0
2017-11-13T06:31:12.444Z,1000.0
2017-11-13T06:32:14.046Z,1000.0
2017-11-13T06:33:15.580Z,1000.0
2017-11-13T06:34:17.263Z,1000.0
2017-11-13T06:35:19.025Z,1000.0
2017-11-13T06:36:20.620Z,1000.1
2017-11-13T06:37:22.198Z,1000.0
2017-11-13T06:38:25.326Z,1000.1
2017-11-13T06:39:26.863Z,1000.1
2017-11-13T06:40:28.540Z,1000.1
2017-11-13T06:41:30.236Z,1000.1
2017-11-13T06:42:31.980Z,1000.1
2017-11-13T06:43:33.575Z,1000.2
2017-11-13T06:44:35.255Z,1000.2
2017-11-13T06:45:36.860Z,1000.3
2017-11-13T06:46:40.475Z,1000.3
2017-11-13T06:47:42.218Z,1000.3
2017-11-13T06:48:43.801Z,1000.4
2017-11-13T06:49:45.375Z,1000.4
2017-11-13T06:50:47.004Z,1000.4
2017-11-13T06:51:48.559Z,1000.4
2017-11-13T06:52:50.260Z,1000.4
2017-11-13T06:53:51.790Z,1000.5
2017-11-13T06:54:53.352Z,1000.5
2017-11-13T06:55:54.846Z,1000.6
2017-11-13T06:57:01.304Z,1000.6
2017-11-13T06:58:02.830Z,1000.6
2017-11-13T06:59:04.472Z,1000.6
2017-11-13T07:00:06.048Z,1000.6
2017-11-13T07:01:07.576Z,1000.7
2017-11-13T07:02:09.204Z,1000.7
2017-11-13T07:03:12.008Z,1000.7
2017-11-13T07:04:13.761Z,1000.7
2017-11-13T07:05:15.484Z,1000.7
2017-11-13T07:06:17.044Z,1000.7
2017-11-13T07:07:18.746Z,1000.7
2017-11-13T07:08:20.308Z,1000.8
2017-11-13T07:09:21.928Z,1000.8
2017-11-13T07:10:23.590Z,1000.8
2017-11-13T07:11:25.090Z,1000.8
2017-11-13T07:12:26.732Z,1000.8
2017-11-13T07:13:28.309Z,1000.8
2017-11-13T07:14:29.936Z,1000.8
2017-11-13T07:15:31.558Z,1000.9
2017-11-13T07:16:33.215Z,1000.9
2017-11-13T07:17:34.811Z,1001.0
2017-11-13T07:18:37.531Z,1001.0
2017-11-13T07:19:39.150Z,1001.0
2017-11-13T07:20:40.794Z,1001.1
2017-11-13T07:21:42.409Z,1001.1
2017-11-13T07:22:44.168Z,1001.1
2017-11-13T07:23:45.809Z,1001.2
2017-11-13T07:24:47.422Z,1001.2
2017-11-13T07:25:49.083Z,1001.2
2017-11-13T07:26:51.713Z,1001.2
2017-11-13T07:27:53.314Z,1001.1
2017-11-13T07:28:54.993Z,1001.2
2017-11-13T07:29:56.696Z,1001.2
2017-11-13T07:30:58.328Z,1001.1
2017-11-13T07:31:59.923Z,1001.2
2017-11-13T07:33:01.642Z,1001.2
2017-11-13T07:34:03.333Z,1001.2
2017-11-13T07:35:05.043Z,1001.2
2017-11-13T07:36:06.717Z,1001.2
2017-11-13T07:37:08.985Z,1001.2
2017-11-13T07:38:10.684Z,1001.3
2017-11-13T07:39:12.349Z,1001.3
2017-11-13T07:40:14.071Z,1001.4
2017-11-13T07:41:15.873Z,1001.3
2017-11-13T07:42:17.451Z,1001.4
2017-11-13T07:43:20.067Z,1001.4
2017-11-13T07:44:21.699Z,1001.4
2017-11-13T07:45:23.350Z,1001.4
2017-11-13T07:46:24.916Z,1001.5
2017-11-13T07:47:29.980Z,1001.5
2017-11-13T07:48:31.623Z,1001.4
2017-11-13T07:49:33.283Z,1001.5
2017-11-13T07:50:34.872Z,1001.5
2017-11-13T07:51:36.394Z,1001.6
2017-11-13T07:52:37.945Z,1001.5
2017-11-13T07:53:40.595Z,1001.6
2017-11-13T07:54:42.259Z,1001.6
2017-11-13T07:55:43.860Z,1001.6
2017-11-13T07:56:45.434Z,1001.6
2017-11-13T07:57:47.128Z,1001.6
2017-11-13T07:58:48.731Z,1001.6
2017-11-13T07:59:50.338Z,1001.6
2017-11-13T08:00:53.105Z,1001.6
2017-11-13T08:01:54.780Z,1001.6
2017-11-13T08:02:57.486Z,1001.6
2017-11-13T08:03:59.218Z,1001.6
2017-11-13T08:05:00.902Z,1001.7
2017-11-13T08:06:02.649Z,1001.7
2017-11-13T08:07:04.402Z,1001.7
2017-11-13T08:08:06.039Z,1001.7
2017-11-13T08:09:07.745Z,1001.8
2017-11-13T08:10:09.339Z,1001.8
2017-11-13T08:11:11.072Z,1001.8
2017-11-13T08:12:12.636Z,1001.8
2017-11-13T08:13:14.275Z,1001.8
2017-11-13T08:14:15.874Z,1001.8
2017-11-13T08:15:17.602Z,1001.8
2017-11-13T08:16:19.352Z,1001.8
2017-11-13T08:17:21.049Z,1001.9
2017-11-13T08:18:23.422Z,1001.9
2017-11-13T08:19:25.094Z,1001.9
2017-11-13T08:20:26.746Z,1001.9
2017-11-13T08:21:28.252Z,1001.9
2017-11-13T08:22:30.016Z,1002.0
2017-11-13T08:23:31.557Z,1002.0
2017-11-13T08:24:33.156Z,1002.0
2017-11-13T08:25:34.664Z,1001.9
2017-11-13T08:26:36.293Z,1001.9
2017-11-13T08:27:37.894Z,1002.0
2017-11-13T08:28:39.493Z,1002.0
2017-11-13T08:29:41.081Z,1002.0
2017-11-13T08:30:43.755Z,1002.0
2017-11-13T08:31:45.301Z,1002.1
2017-11-13T08:32:48.126Z,1002.1
2017-11-13T08:33:49.792Z,1002.1
2017-11-13T08:34:51.497Z,1002.1
2017-11-13T08:35:53.104Z,1002.1
2017-11-13T08:36:54.829Z,1002.2
2017-11-13T08:37:56.623Z,1002.1
2017-11-13T08:38:58.282Z,1002.1
2017-11-13T08:39:59.937Z,1002.2
2017-11-13T08:41:01.580Z,1002.2
2017-11-13T08:42:03.175Z,1002.2
2017-11-13T08:43:05.003Z,1002.2
2017-11-13T08:44:06.691Z,1002.3
2017-11-13T08:45:08.558Z,1002.3
2017-11-13T08:46:10.120Z,1002.3
2017-11-13T08:47:11.907Z,1002.3
2017-11-13T08:48:13.577Z,1002.4
2017-11-13T08:49:15.328Z,1002.3
2017-11-13T08:50:17.043Z,1002.3
2017-11-13T08:51:18.658Z,1002.3
2017-11-13T08:52:20.278Z,1002.3
2017-11-13T08:53:21.945Z,1002.4
2017-11-13T08:54:23.604Z,1002.3
2017-11-13T08:55:25.325Z,1002.3
2017-11-13T08:56:27.016Z,1002.3
2017-11-13T08:57:28.742Z,1002.3
2017-11-13T08:58:30.333Z,1002.3
2017-11-13T08:59:31.892Z,1002.3
2017-11-13T09:00:33.334Z,1002.3
2017-11-13T09:01:34.853Z,1002.4
2017-11-13T09:02:36.434Z,1002.3
2017-11-13T09:03:38.027Z,1002.4
2017-11-13T09:04:39.676Z,1002.3
2017-11-13T09:05:42.245Z,1002.4
2017-11-13T09:06:43.803Z,1002.4
2017-11-13T09:07:45.435Z,1002.4
2017-11-13T09:08:46.920Z,1002.4
2017-11-13T09:09:48.561Z,1002.4
2017-11-13T09:10:50.118Z,1002.5
2017-11-13T09:11:51.684Z,1002.5
2017-11-13T09:12:53.233Z,1002.5
2017-11-13T09:13:54.792Z,1002.5
2017-11-13T09:14:56.392Z,1002.5
2017-11-13T09:15:57.995Z,1002.5
2017-11-13T09:16:59.599Z,1002.6
2017-11-13T09:18:01.318Z,1002.6
2017-11-13T09:19:02.912Z,1002.7
2017-11-13T09:20:04.530Z,1002.6
2017-11-13T09:21:06.137Z,1002.6
2017-11-13T09:22:07.772Z,1002.7
2017-11-13T09:23:09.445Z,1002.7
2017-11-13T09:24:11.121Z,1002.7
2017-11-13T09:25:12.698Z,1002.7
2017-11-13T09:26:14.266Z,1002.8
2017-11-13T09:27:16.988Z,1002.8
2017-11-13T09:28:18.563Z,1002.7
2017-11-13T09:29:20.324Z,1002.8
2017-11-13T09:30:21.969Z,1002.8
2017-11-13T09:31:24.703Z,1002.9
2017-11-13T09:32:26.428Z,1002.8
2017-11-13T09:33:28.203Z,1002.9
2017-11-13T09:34:30.147Z,1002.9
2017-11-13T09:35:32.755Z,1002.9
2017-11-13T09:36:34.340Z,1002.9
2017-11-13T09:37:35.958Z,1002.9
2017-11-13T09:38:37.672Z,1002.9
2017-11-13T09:39:39.344Z,1002.9
2017-11-13T09:40:40.904Z,1002.9
2017-11-13T09:41:42.588Z,1002.9
2017-11-13T09:42:44.230Z,1002.8
2017-11-13T09:43:45.990Z,1002.9
2017-11-13T09:44:47.559Z,1002.9
2017-11-13T09:45:49.176Z,1002.9
2017-11-13T09:46:50.796Z,1002.9
2017-11-13T09:47:52.505Z,1003.0
2017-11-13T09:48:54.084Z,1002.9
2017-11-13T09:49:55.755Z,1002.9
2017-11-13T09:50:57.301Z,1002.9
2017-11-13T09:51:58.980Z,1003.0
2017-11-13T09:53:00.492Z,1003.0
2017-11-13T09:54:02.124Z,1003.0
2017-11-13T09:55:03.643Z,1003.0
2017-11-13T09:56:05.323Z,1003.0
2017-11-13T09:57:06.868Z,1003.0
2017-11-13T09:58:08.508Z,1003.0
2017-11-13T09:59:10.103Z,1003.0
2017-11-13T10:00:13.775Z,1003.0
2017-11-13T10:01:15.390Z,1003.0
2017-11-13T10:02:17.136Z,1003.0
2017-11-13T10:03:18.797Z,1002.9
2017-11-13T10:04:20.495Z,1003.0
2017-11-13T10:05:22.349Z,1003.0
2017-11-13T10:06:24.049Z,1003.1
2017-11-13T10:07:25.806Z,1003.1
2017-11-13T10:08:27.582Z,1003.1
2017-11-13T10:09:29.238Z,1003.1
2017-11-13T10:10:31.001Z,1003.1
2017-11-13T10:11:32.891Z,1003.1
2017-11-13T10:12:34.444Z,1003.1
2017-11-13T10:13:36.433Z,1003.1
2017-11-13T10:14:38.102Z,1003.1
2017-11-13T10:15:39.647Z,1003.1
2017-11-13T10:16:41.346Z,1003.2
2017-11-13T10:17:42.989Z,1003.2
2017-11-13T10:18:45.582Z,1003.2
2017-11-13T10:19:47.236Z,1003.2
2017-11-13T10:20:48.984Z,1003.2
2017-11-13T10:21:50.627Z,1003.2
2017-11-13T10:22:52.402Z,1003.2
2017-11-13T10:23:53.980Z,1003.2
2017-11-13T10:24:55.617Z,1003.3
2017-11-13T10:25:57.266Z,1003.2
2017-11-13T10:26:58.938Z,1003.3
2017-11-13T10:28:00.646Z,1003.3
2017-11-13T10:29:02.449Z,1003.3
2017-11-13T10:30:04.260Z,1003.3
2017-11-13T10:31:06.023Z,1003.3
2017-11-13T10:32:07.781Z,1003.3
2017-11-13T10:33:09.559Z,1003.2
2017-11-13T10:34:11.267Z,1003.3
2017-11-13T10:35:13.236Z,1003.2
2017-11-13T10:36:15.112Z,1003.2
2017-11-13T10:37:16.847Z,1003.2
2017-11-13T10:38:18.415Z,1003.2
2017-11-13T10:39:20.053Z,1003.1
2017-11-13T10:40:21.744Z,1003.1
2017-11-13T10:41:23.437Z,1003.2
2017-11-13T10:42:25.064Z,1003.2
2017-11-13T10:43:26.874Z,1003.1
2017-11-13T10:44:28.451Z,1003.1
2017-11-13T10:45:30.286Z,1003.2
2017-11-13T10:46:31.934Z,1003.2
2017-11-13T10:47:33.753Z,1003.2
2017-11-13T10:48:35.390Z,1003.2
2017-11-13T10:49:37.014Z,1003.2
2017-11-13T10:50:38.666Z,1003.2
2017-11-13T10:51:40.397Z,1003.2
2017-11-13T10:52:41.951Z,1003.2
2017-11-13T10:53:43.645Z,1003.2
2017-11-13T10:54:45.385Z,1003.3
2017-11-13T10:55:47.001Z,1003.3
2017-11-13T10:56:48.519Z,1003.4
2017-11-13T10:57:51.348Z,1003.4
2017-11-13T10:58:52.984Z,1003.4
2017-11-13T10:59:54.666Z,1003.4
2017-11-13T11:00:56.302Z,1003.4
2017-11-13T11:01:58.089Z,1003.3
2017-11-13T11:02:59.759Z,1003.4
2017-11-13T11:04:01.424Z,1003.4
2017-11-13T11:05:03.191Z,1003.4
2017-11-13T11:06:05.078Z,1003.4
2017-11-13T11:07:06.821Z,1003.4
2017-11-13T11:08:08.721Z,1003.4
2017-11-13T11:09:10.386Z,1003.4
2017-11-13T11:10:12.091Z,1003.4
2017-11-13T11:11:13.812Z,1003.4
2017-11-13T11:12:15.452Z,1003.4
2017-11-13T11:13:17.154Z,1003.4
2017-11-13T11:14:18.906Z,1003.4
2017-11-13T11:15:21.608Z,1003.4
2017-11-13T11:16:23.225Z,1003.4
2017-11-13T11:17:25.085Z,1003.4
2017-11-13T11:18:26.743Z,1003.5
2017-11-13T11:19:28.364Z,1003.5
2017-11-13T11:20:30.065Z,1003.5
2017-11-13T11:21:31.662Z,1003.5
2017-11-13T11:22:33.261Z,1003.5
2017-11-13T11:23:34.913Z,1003.5
2017-11-13T11:24:36.569Z,1003.5
2017-11-13T11:25:38.250Z,1003.5
2017-11-13T11:26:39.900Z,1003.6
2017-11-13T11:27:41.586Z,1003.6
2017-11-13T11:28:43.271Z,1003.5
2017-11-13T11:29:45.051Z,1003.5
2017-11-13T11:30:46.652Z,1003.5
2017-11-13T11:31:48.884Z,1003.6
2017-11-13T11:32:50.823Z,1003.5
2017-11-13T11:33:52.644Z,1003.6
2017-11-13T11:34:54.942Z,1003.6
2017-11-13T11:35:56.544Z,1003.5
2017-11-13T11:36:58.196Z,1003.6
2017-11-13T11:37:59.930Z,1003.5
2017-11-13T11:39:01.550Z,1003.5
2017-11-13T11:40:03.398Z,1003.5
2017-11-13T11:41:05.028Z,1003.5
2017-11-13T11:42:06.690Z,1003.5
2017-11-13T11:43:08.168Z,1003.5
2017-11-13T11:44:09.878Z,1003.5
2017-11-13T11:45:11.499Z,1003.5
2017-11-13T11:46:13.146Z,1003.5
2017-11-13T11:47:14.692Z,1003.6
2017-11-13T11:48:16.493Z,1003.6
2017-11-13T11:49:18.205Z,1003.6
2017-11-13T11:50:20.021Z,1003.6
2017-11-13T11:51:21.870Z,1003.5
2017-11-13T11:52:24.784Z,1003.5
2017-11-13T11:53:26.292Z,1003.5
2017-11-13T11:54:27.911Z,1003.6
2017-11-13T11:55:29.430Z,1003.6
2017-11-13T11:56:32.013Z,1003.6
2017-11-13T11:57:33.599Z,1003.6
2017-11-13T11:58:35.200Z,1003.6
2017-11-13T11:59:36.814Z,1003.6
2017-11-13T12:00:38.328Z,1003.6
2017-11-13T12:01:40.037Z,1003.7
2017-11-13T12:02:41.573Z,1003.7
2017-11-13T12:03:43.417Z,1003.6
2017-11-13T12:04:44.976Z,1003.7
2017-11-13T12:05:46.751Z,1003.7
2017-11-13T12:06:48.295Z,1003.7
2017-11-13T12:07:49.943Z,1003.7
2017-11-13T12:08:51.580Z,1003.7
2017-11-13T12:09:53.237Z,1003.8
2017-11-13T12:10:54.748Z,1003.8
2017-11-13T12:11:56.338Z,1003.8
2017-11-13T12:12:57.861Z,1003.8
2017-11-13T12:13:59.456Z,1003.8
2017-11-13T12:15:01.007Z,1003.8
2017-11-13T12:16:02.725Z,1003.8
2017-11-13T12:17:04.280Z,1003.8
2017-11-13T12:18:07.009Z,1003.8
2017-11-13T12:19:08.529Z,1003.8
2017-11-13T12:20:10.159Z,1003.8
2017-11-13T12:21:11.687Z,1003.9
2017-11-13T12:22:13.262Z,1003.9
2017-11-13T12:23:15.311Z,1003.9
2017-11-13T12:24:16.860Z,1004.0
2017-11-13T12:25:18.569Z,1003.9
2017-11-13T12:26:21.712Z,1003.9
2017-11-13T12:27:23.289Z,1003.8
2017-11-13T12:28:25.113Z,1003.8
2017-11-13T12:29:26.851Z,1003.9
2017-11-13T12:30:28.547Z,1003.9
2017-11-13T12:31:30.135Z,1003.9
2017-11-13T12:32:31.659Z,1003.9
2017-11-13T12:33:33.244Z,1003.9
2017-11-13T12:34:34.978Z,1004.0
2017-11-13T12:35:36.558Z,1003.9
2017-11-13T12:36:39.309Z,1003.9
2017-11-13T12:37:40.898Z,1003.8
2017-11-13T12:38:42.645Z,1003.8
2017-11-13T12:39:44.008Z,1003.8
2017-11-13T12:40:47.649Z,1003.8
2017-11-13T12:41:49.415Z,1003.8
2017-11-13T12:42:50.885Z,1003.8
2017-11-13T12:43:52.578Z,1003.8
2017-11-13T12:44:54.203Z,1003.8
2017-11-13T12:45:55.745Z,1003.9
2017-11-13T12:46:57.648Z,1003.9
2017-11-13T12:47:59.427Z,1003.9
2017-11-13T12:49:01.027Z,1003.9
2017-11-13T12:50:02.649Z,1003.9
2017-11-13T12:51:04.339Z,1003.9
2017-11-13T12:52:05.883Z,1004.0
2017-11-13T12:53:07.605Z,1003.9
2017-11-13T12:54:09.139Z,1004.0
2017-11-13T12:55:11.095Z,1003.9
2017-11-13T12:56:12.673Z,1004.0
2017-11-13T12:57:14.298Z,1003.9
2017-11-13T12:58:15.904Z,1004.0
2017-11-13T12:59:17.529Z,1004.0
2017-11-13T13:00:20.251Z,1004.0
2017-11-13T13:01:21.864Z,1004.0
2017-11-13T13:02:23.694Z,1004.0